Time;durP1;ratioP1;P1;durP2;ratioP2;P2;SDS_P1;SDS_P2;PMS_P1;PMS_P2;Temp;Humidity;BMP_temperature;BMP_pressure;BME280_temperature;BME280_humidity;BME280_pressure;Samples;Min_cycle;Max_cycle;Signal;HPM_P1;HPM_P2
2023/06/25 00:02:07;;;;;;;9.77;6.20;;;;;15.10;96897.00;;;;8231362;28;20226;-67
2023/06/25 00:06:10;;;;;;;9.52;6.22;;;;;15.00;96902.00;;;;8248906;28;20290;-65
2023/06/25 00:10:13;;;;;;;9.13;6.53;;;;;14.80;96894.00;;;;8247591;28;20194;-67
2023/06/25 00:14:17;;;;;;;10.57;6.32;;;;;14.70;96890.00;;;;8255160;28;20233;-66
2023/06/25 00:18:21;;;;;;;8.55;6.50;;;;;14.50;96883.00;;;;8249800;28;20291;-64
2023/06/25 00:22:24;;;;;;;10.13;6.50;;;;;14.40;96875.00;;;;8261492;28;20767;-67
2023/06/25 00:26:27;;;;;;;8.07;6.13;;;;;14.40;96880.00;;;;8254092;28;20206;-65
2023/06/25 00:30:32;;;;;;;9.02;6.43;;;;;14.30;96884.00;;;;8254362;28;20300;-69
2023/06/25 00:34:41;;;;;;;11.75;6.53;;;;;14.30;96881.00;;;;8254961;28;20240;-68
2023/06/25 00:38:45;;;;;;;11.18;6.38;;;;;14.30;96891.00;;;;8253607;28;20207;-67
2023/06/25 00:42:49;;;;;;;9.52;6.30;;;;;14.20;96883.00;;;;8256876;28;20223;-63
2023/06/25 00:46:52;;;;;;;7.93;5.97;;;;;14.20;96881.00;;;;8253576;28;20293;-64
2023/06/25 00:51:01;;;;;;;9.13;6.60;;;;;14.20;96878.00;;;;8255492;28;20202;-67
2023/06/25 00:55:08;;;;;;;9.50;6.70;;;;;14.20;96872.00;;;;8253588;28;20293;-69
2023/06/25 00:59:12;;;;;;;9.02;6.47;;;;;14.10;96870.00;;;;8255180;28;20230;-68
2023/06/25 01:03:26;;;;;;;8.95;6.70;;;;;14.00;96859.00;;;;8255311;28;20240;-66
2023/06/25 01:07:36;;;;;;;13.63;6.30;;;;;13.90;96859.00;;;;8252437;28;20220;-65
2023/06/25 01:11:39;;;;;;;10.38;6.68;;;;;13.90;96855.00;;;;8252362;28;20213;-67
2023/06/25 01:15:43;;;;;;;8.93;6.60;;;;;13.70;96855.00;;;;8253525;28;21176;-65
2023/06/25 01:19:50;;;;;;;8.82;6.18;;;;;13.70;96851.00;;;;8254971;28;20194;-65
2023/06/25 01:23:55;;;;;;;10.40;6.57;;;;;13.60;96852.00;;;;8254567;28;20324;-65
2023/06/25 01:28:01;;;;;;;11.98;6.63;;;;;13.70;96844.00;;;;8253932;28;20290;-66
2023/06/25 01:32:08;;;;;;;12.05;6.90;;;;;13.60;96841.00;;;;8255570;28;20241;-68
2023/06/25 01:36:12;;;;;;;12.20;7.20;;;;;13.60;96843.00;;;;8254347;28;20203;-68
2023/06/25 01:40:17;;;;;;;13.57;6.40;;;;;13.50;96838.00;;;;8255430;28;20229;-66
2023/06/25 01:44:26;;;;;;;11.80;7.55;;;;;13.40;96830.00;;;;8253582;28;20230;-67
2023/06/25 01:48:31;;;;;;;14.07;7.22;;;;;13.30;96832.00;;;;8251481;28;20603;-68
2023/06/25 01:52:34;;;;;;;18.90;7.70;;;;;13.30;96819.00;;;;8253116;28;20294;-69
2023/06/25 01:56:39;;;;;;;11.35;6.80;;;;;13.30;96813.00;;;;8255846;28;20229;-71
2023/06/25 02:00:42;;;;;;;11.63;6.93;;;;;13.30;96802.00;;;;8254138;28;20228;-65
2023/06/25 02:04:47;;;;;;;12.07;7.43;;;;;13.60;96798.00;;;;8258139;28;20237;-68
2023/06/25 02:08:58;;;;;;;9.85;7.03;;;;;13.50;96801.00;;;;8251366;28;20651;-67
2023/06/25 02:13:03;;;;;;;9.45;6.80;;;;;13.40;96798.00;;;;8250185;28;20244;-69
2023/06/25 02:17:06;;;;;;;11.25;6.90;;;;;13.20;96794.00;;;;8251593;28;20216;-67
2023/06/25 02:21:09;;;;;;;10.23;6.18;;;;;13.00;96795.00;;;;8248134;28;20202;-64
2023/06/25 02:25:15;;;;;;;15.63;7.15;;;;;13.00;96794.00;;;;8252235;28;20748;-65
2023/06/25 02:29:19;;;;;;;9.40;6.47;;;;;13.00;96786.00;;;;8255608;28;20230;-68
2023/06/25 02:33:22;;;;;;;12.32;7.50;;;;;13.00;96792.00;;;;8252535;28;20296;-65
2023/06/25 02:37:29;;;;;;;11.00;6.60;;;;;13.00;96789.00;;;;8253212;28;20842;-66
2023/06/25 02:41:34;;;;;;;10.40;7.50;;;;;12.90;96780.00;;;;8253094;28;20205;-67
2023/06/25 02:45:39;;;;;;;10.73;6.60;;;;;12.80;96785.00;;;;8255372;28;20714;-66
2023/06/25 02:49:45;;;;;;;10.43;6.95;;;;;12.80;96787.00;;;;8252727;28;20613;-67
2023/06/25 02:53:48;;;;;;;9.20;6.70;;;;;12.80;96786.00;;;;8251574;28;20202;-74
2023/06/25 02:57:54;;;;;;;11.73;6.82;;;;;12.70;96781.00;;;;8253267;28;20211;-66
2023/06/25 03:01:58;;;;;;;12.10;7.15;;;;;12.70;96782.00;;;;8277384;23;20324;-64
2023/06/25 03:06:04;;;;;;;10.30;6.75;;;;;12.80;96777.00;;;;8276556;28;20236;-67
2023/06/25 03:10:08;;;;;;;11.70;6.82;;;;;12.70;96772.00;;;;8282187;28;20290;-67
2023/06/25 03:14:16;;;;;;;11.20;7.38;;;;;12.70;96769.00;;;;8284264;28;20326;-72
2023/06/25 03:18:38;;;;;;;9.95;6.82;;;;;12.70;96772.00;;;;8265257;28;20202;-67
2023/06/25 03:22:41;;;;;;;9.57;6.78;;;;;12.70;96775.00;;;;8282722;28;20213;-67
2023/06/25 03:26:46;;;;;;;11.60;7.38;;;;;12.80;96771.00;;;;8284295;28;20663;-68
2023/06/25 03:30:49;;;;;;;9.93;6.55;;;;;12.80;96764.00;;;;8280888;28;20196;-65
2023/06/25 03:34:55;;;;;;;11.32;7.15;;;;;12.80;96776.00;;;;8282346;28;20208;-68
2023/06/25 03:39:00;;;;;;;11.88;7.07;;;;;12.80;96770.00;;;;8281226;28;20199;-68
2023/06/25 03:43:04;;;;;;;12.52;7.00;;;;;12.80;96769.00;;;;8281070;28;20232;-64
2023/06/25 03:47:07;;;;;;;10.27;6.43;;;;;12.90;96775.00;;;;8283113;28;20234;-66
2023/06/25 03:51:16;;;;;;;8.95;6.35;;;;;13.20;96775.00;;;;8287521;28;20209;-66
2023/06/25 03:55:19;;;;;;;11.30;6.55;;;;;13.30;96766.00;;;;8286882;28;20202;-65
2023/06/25 03:59:29;;;;;;;13.30;7.13;;;;;13.50;96766.00;;;;8286827;28;20751;-70
2023/06/25 04:03:33;;;;;;;9.70;6.82;;;;;13.60;96769.00;;;;8283936;28;20246;-67
2023/06/25 04:07:37;;;;;;;9.73;6.68;;;;;13.80;96770.00;;;;8285674;28;20231;-65
2023/06/25 04:11:41;;;;;;;8.68;6.05;;;;;14.20;96781.00;;;;8284113;28;20212;-66
2023/06/25 04:15:44;;;;;;;8.00;6.05;;;;;14.70;96771.00;;;;8286282;28;20208;-64
2023/06/25 04:19:49;;;;;;;9.43;5.90;;;;;15.20;96771.00;;;;8284230;28;20742;-63
2023/06/25 04:23:57;;;;;;;8.68;6.38;;;;;15.60;96767.00;;;;8290461;28;20241;-64
2023/06/25 04:28:01;;;;;;;11.20;6.68;;;;;15.90;96762.00;;;;8282701;28;20210;-64
2023/06/25 04:32:06;;;;;;;9.60;6.35;;;;;16.20;96772.00;;;;8294588;28;20324;-64
2023/06/25 04:36:11;;;;;;;11.88;6.57;;;;;16.70;96780.00;;;;8292410;28;20612;-63
2023/06/25 04:40:19;;;;;;;9.70;6.57;;;;;17.30;96769.00;;;;8291561;28;20202;-64
2023/06/25 04:44:26;;;;;;;8.93;6.43;;;;;17.80;96769.00;;;;8292909;28;20327;-64
2023/06/25 04:48:31;;;;;;;7.75;6.10;;;;;18.20;96769.00;;;;8295272;28;20285;-65
2023/06/25 04:52:37;;;;;;;8.63;6.40;;;;;18.20;96766.00;;;;8294165;28;20297;-65
2023/06/25 04:56:42;;;;;;;8.23;6.20;;;;;18.20;96760.00;;;;8295004;28;20210;-65
2023/06/25 05:00:55;;;;;;;8.52;6.03;;;;;18.40;96766.00;;;;8294108;28;20428;-66
2023/06/25 05:05:06;;;;;;;8.73;5.53;;;;;18.40;96764.00;;;;8295463;28;20787;-64
2023/06/25 05:09:09;;;;;;;9.02;6.18;;;;;18.50;96772.00;;;;8289858;28;20567;-65
2023/06/25 05:13:17;;;;;;;10.23;6.45;;;;;18.40;96767.00;;;;8293244;28;20194;-63
2023/06/25 05:17:20;;;;;;;10.77;6.55;;;;;18.50;96774.00;;;;8291647;28;20277;-65
2023/06/25 05:21:24;;;;;;;9.27;6.68;;;;;18.70;96767.00;;;;8291043;28;20261;-63
2023/06/25 05:25:28;;;;;;;12.65;6.50;;;;;19.00;96771.00;;;;8291720;28;20272;-66
2023/06/25 05:29:35;;;;;;;9.00;6.53;;;;;19.50;96770.00;;;;8282209;28;20293;-66
2023/06/25 05:33:38;;;;;;;8.95;5.70;;;;;20.10;96766.00;;;;8291802;28;20256;-63
2023/06/25 05:37:44;;;;;;;11.40;6.80;;;;;20.70;96778.00;;;;8295445;28;20926;-64
2023/06/25 05:41:47;;;;;;;9.15;6.60;;;;;21.20;96781.00;;;;8278910;28;20209;-64
2023/06/25 05:45:51;;;;;;;9.23;6.60;;;;;22.00;96781.00;;;;8290989;28;20230;-65
2023/06/25 05:49:56;;;;;;;7.90;5.95;;;;;22.70;96781.00;;;;8290572;28;20237;-64
2023/06/25 05:53:59;;;;;;;8.93;5.95;;;;;23.30;96776.00;;;;8291600;28;20193;-63
2023/06/25 05:58:03;;;;;;;8.93;6.25;;;;;24.00;96779.00;;;;8288979;28;20202;-65
2023/06/25 06:02:12;;;;;;;9.38;6.00;;;;;24.50;96782.00;;;;8291162;28;20226;-65
2023/06/25 06:06:16;;;;;;;7.95;6.45;;;;;24.70;96788.00;;;;8293050;28;20234;-65
2023/06/25 06:10:19;;;;;;;11.05;6.75;;;;;25.10;96794.00;;;;8287468;28;20194;-65
2023/06/25 06:14:23;;;;;;;10.95;6.28;;;;;25.50;96797.00;;;;8284277;28;20245;-64
2023/06/25 06:18:29;;;;;;;6.38;5.38;;;;;25.70;96793.00;;;;8276925;28;20230;-65
2023/06/25 06:22:34;;;;;;;7.75;5.95;;;;;26.30;96787.00;;;;8279658;28;20213;-65
2023/06/25 06:26:38;;;;;;;7.25;5.78;;;;;26.40;96787.00;;;;8278548;28;20308;-66
2023/06/25 06:30:43;;;;;;;6.57;5.50;;;;;26.90;96785.00;;;;8272043;28;20205;-64
2023/06/25 06:34:48;;;;;;;10.45;6.13;;;;;27.10;96794.00;;;;8285911;28;20549;-64
2023/06/25 06:38:52;;;;;;;8.60;6.60;;;;;27.10;96792.00;;;;8288211;28;20263;-65
2023/06/25 06:42:55;;;;;;;9.20;6.40;;;;;26.70;96793.00;;;;8276420;28;20209;-65
2023/06/25 06:46:59;;;;;;;9.02;6.47;;;;;27.00;96799.00;;;;8285320;28;20265;-65
2023/06/25 06:51:03;;;;;;;9.93;6.40;;;;;27.30;96796.00;;;;8267376;28;20578;-65
2023/06/25 06:55:07;;;;;;;9.43;6.38;;;;;27.50;96798.00;;;;8269551;28;20202;-65
2023/06/25 06:59:10;;;;;;;9.10;6.20;;;;;27.60;96797.00;;;;8273620;28;20285;-68
2023/06/25 07:03:14;;;;;;;9.48;6.00;;;;;28.00;96796.00;;;;8282857;28;20218;-65
2023/06/25 07:07:21;;;;;;;8.15;6.38;;;;;28.30;96795.00;;;;8277183;28;21306;-67
2023/06/25 07:11:26;;;;;;;9.43;6.72;;;;;28.40;96783.00;;;;8278514;28;20207;-65
2023/06/25 07:15:30;;;;;;;8.38;6.25;;;;;28.50;96790.00;;;;8281787;28;20294;-67
2023/06/25 07:19:33;;;;;;;10.20;6.43;;;;;28.70;96799.00;;;;8274853;28;20207;-66
2023/06/25 07:23:43;;;;;;;8.82;6.13;;;;;28.50;96790.00;;;;8277073;28;20202;-65
2023/06/25 07:27:46;;;;;;;7.88;6.03;;;;;28.70;96788.00;;;;8280892;28;20296;-65
2023/06/25 07:31:49;;;;;;;9.25;6.60;;;;;28.80;96792.00;;;;8263487;28;20799;-65
2023/06/25 07:35:52;;;;;;;7.68;6.28;;;;;29.10;96795.00;;;;8282153;28;21097;-65
2023/06/25 07:39:58;;;;;;;8.98;6.35;;;;;29.40;96784.00;;;;8280738;28;20302;-66
2023/06/25 07:44:01;;;;;;;11.52;6.60;;;;;29.30;96786.00;;;;8281413;28;20305;-66
2023/06/25 07:48:26;;;;;;;8.23;5.93;;;;;29.20;96787.00;;;;8281520;28;20694;-66
2023/06/25 07:52:29;;;;;;;9.38;6.32;;;;;29.10;96782.00;;;;8281521;28;20221;-66
2023/06/25 07:56:33;;;;;;;7.57;5.90;;;;;29.40;96765.00;;;;8281805;28;20489;-65
2023/06/25 08:00:36;;;;;;;7.28;5.85;;;;;29.90;96766.00;;;;8279488;28;20233;-64
2023/06/25 08:04:45;;;;;;;9.65;6.28;;;;;29.50;96772.00;;;;8282008;28;20288;-66
2023/06/25 08:08:48;;;;;;;8.45;5.60;;;;;29.90;96767.00;;;;8280626;28;20209;-64
2023/06/25 08:12:54;;;;;;;6.35;5.68;;;;;30.20;96773.00;;;;8275523;28;20363;-62
2023/06/25 08:16:57;;;;;;;9.63;5.63;;;;;30.70;96776.00;;;;8274995;28;20213;-63
2023/06/25 08:21:02;;;;;;;10.85;6.60;;;;;31.10;96768.00;;;;8276151;28;20755;-64
2023/06/25 08:25:20;;;;;;;8.20;5.93;;;;;31.50;96773.00;;;;8276171;28;20918;-62
2023/06/25 08:29:30;;;;;;;7.68;6.00;;;;;31.20;96772.00;;;;8272030;28;20244;-63
2023/06/25 08:33:36;;;;;;;9.70;5.63;;;;;31.30;96768.00;;;;8282111;28;20239;-63
2023/06/25 08:37:42;;;;;;;7.28;5.22;;;;;31.60;96767.00;;;;8279906;28;20194;-63
2023/06/25 08:41:48;;;;;;;7.00;5.70;;;;;32.20;96771.00;;;;8273718;28;20281;-62
2023/06/25 08:45:53;;;;;;;7.50;5.53;;;;;33.00;96771.00;;;;8270324;28;20262;-62
2023/06/25 08:49:56;;;;;;;7.55;5.82;;;;;33.50;96771.00;;;;8273871;28;20668;-63
2023/06/25 08:53:59;;;;;;;6.25;5.60;;;;;33.80;96768.00;;;;8280206;28;20194;-62
2023/06/25 08:58:02;;;;;;;9.27;5.57;;;;;33.70;96760.00;;;;8287421;28;20242;-62
2023/06/25 09:02:10;;;;;;;6.18;5.57;;;;;33.40;96765.00;;;;8281553;28;20444;-63
2023/06/25 09:06:17;;;;;;;6.90;5.45;;;;;33.00;96753.00;;;;8282140;28;20321;-63
2023/06/25 09:10:23;;;;;;;5.95;4.78;;;;;33.40;96758.00;;;;8282051;28;20297;-65
2023/06/25 09:14:26;;;;;;;5.35;4.80;;;;;33.60;96757.00;;;;8281955;28;20212;-64
2023/06/25 09:18:31;;;;;;;4.93;4.43;;;;;33.10;96757.00;;;;8280058;28;20220;-62
2023/06/25 09:22:34;;;;;;;8.45;4.95;;;;;33.10;96752.00;;;;8264941;28;20289;-63
2023/06/25 09:26:47;;;;;;;5.90;4.65;;;;;32.90;96750.00;;;;8280447;28;20937;-63
2023/06/25 09:30:56;;;;;;;5.75;5.00;;;;;33.40;96747.00;;;;8278128;28;20202;-65
2023/06/25 09:35:05;;;;;;;7.88;4.88;;;;;34.00;96746.00;;;;8278107;28;20194;-63
2023/06/25 09:39:11;;;;;;;6.38;5.18;;;;;34.30;96744.00;;;;8275143;28;20277;-64
2023/06/25 09:43:16;;;;;;;5.90;5.22;;;;;34.90;96742.00;;;;8278863;28;20293;-64
2023/06/25 09:47:21;;;;;;;5.15;4.65;;;;;35.20;96735.00;;;;8279834;28;20312;-65
2023/06/25 09:51:31;;;;;;;5.95;5.10;;;;;35.80;96732.00;;;;8271915;28;20308;-65
2023/06/25 09:55:37;;;;;;;7.25;4.80;;;;;36.40;96743.00;;;;8286921;28;20753;-65
2023/06/25 09:59:41;;;;;;;6.40;5.40;;;;;36.60;96742.00;;;;8277127;28;20198;-66
2023/06/25 10:03:44;;;;;;;5.68;4.72;;;;;36.00;96746.00;;;;8275450;28;20312;-65
2023/06/25 10:07:52;;;;;;;8.55;4.93;;;;;35.40;96740.00;;;;8273377;28;21121;-65
2023/06/25 10:11:57;;;;;;;5.45;4.95;;;;;35.60;96735.00;;;;8274194;28;20788;-63
2023/06/25 10:16:07;;;;;;;5.55;5.05;;;;;35.00;96735.00;;;;8277016;28;20210;-64
2023/06/25 10:20:11;;;;;;;5.88;5.13;;;;;35.30;96728.00;;;;8271728;28;20281;-64
2023/06/25 10:24:15;;;;;;;5.65;4.82;;;;;35.90;96729.00;;;;8282562;28;20212;-64
2023/06/25 10:28:18;;;;;;;5.38;4.88;;;;;36.20;96726.00;;;;8272140;28;20730;-65
2023/06/25 10:32:25;;;;;;;6.90;5.18;;;;;36.40;96718.00;;;;8288847;28;20209;-61
2023/06/25 10:36:29;;;;;;;6.97;5.13;;;;;36.80;96723.00;;;;8276076;28;20211;-63
2023/06/25 10:40:35;;;;;;;7.28;4.82;;;;;36.80;96722.00;;;;8268681;28;20199;-63
2023/06/25 10:44:40;;;;;;;5.60;4.63;;;;;37.00;96715.00;;;;8279610;28;20237;-64
2023/06/25 10:48:46;;;;;;;6.03;5.43;;;;;37.70;96709.00;;;;8294019;28;20229;-65
2023/06/25 10:52:54;;;;;;;5.75;5.07;;;;;37.80;96709.00;;;;8292216;28;20229;-62
2023/06/25 10:57:17;;;;;;;5.60;5.10;;;;;38.00;96695.00;;;;8269776;28;20281;-63
2023/06/25 11:01:21;;;;;;;5.93;5.32;;;;;37.90;96699.00;;;;8276350;28;20199;-61
2023/06/25 11:05:34;;;;;;;5.93;4.72;;;;;38.10;96698.00;;;;8289036;28;20254;-62
2023/06/25 11:09:42;;;;;;;5.78;5.28;;;;;38.70;96689.00;;;;8287590;28;20273;-64
2023/06/25 11:13:52;;;;;;;5.78;5.18;;;;;38.40;96688.00;;;;8285451;28;20236;-64
2023/06/25 11:17:58;;;;;;;6.15;4.93;;;;;38.00;96683.00;;;;8288317;28;20293;-64
2023/06/25 11:22:11;;;;;;;9.70;5.38;;;;;37.40;96675.00;;;;8286812;28;20205;-64
2023/06/25 11:26:19;;;;;;;6.35;5.22;;;;;36.80;96667.00;;;;8290680;28;20221;-63
2023/06/25 11:30:27;;;;;;;5.57;5.07;;;;;36.40;96675.00;;;;8295902;28;20214;-62
2023/06/25 11:34:33;;;;;;;6.00;5.25;;;;;36.70;96667.00;;;;8295219;28;20285;-62
2023/06/25 11:38:44;;;;;;;7.30;6.30;;;;;37.40;96661.00;;;;8294599;28;20281;-62
2023/06/25 11:42:48;;;;;;;5.93;5.30;;;;;37.20;96654.00;;;;8283082;28;20607;-62
2023/06/25 11:46:53;;;;;;;5.90;5.28;;;;;37.10;96652.00;;;;8283002;28;20218;-63
2023/06/25 11:51:05;;;;;;;6.40;5.38;;;;;37.10;96654.00;;;;8284405;28;20277;-63
2023/06/25 11:55:09;;;;;;;7.20;5.10;;;;;37.70;96654.00;;;;8283048;28;20238;-65
2023/06/25 11:59:13;;;;;;;6.30;5.70;;;;;37.80;96652.00;;;;8284795;28;20202;-63
2023/06/25 12:03:21;;;;;;;5.57;5.03;;;;;38.10;96643.00;;;;8287281;28;20320;-63
2023/06/25 12:07:25;;;;;;;6.43;4.85;;;;;38.00;96647.00;;;;8282742;28;20626;-63
2023/06/25 12:11:28;;;;;;;4.97;4.57;;;;;37.80;96632.00;;;;8281333;28;20435;-62
2023/06/25 12:15:31;;;;;;;6.28;4.90;;;;;38.20;96625.00;;;;8289222;28;20941;-63
2023/06/25 12:19:36;;;;;;;5.35;4.85;;;;;38.80;96626.00;;;;8285372;28;20596;-62
2023/06/25 12:23:40;;;;;;;10.32;5.50;;;;;38.20;96619.00;;;;8286170;28;20679;-62
2023/06/25 12:27:45;;;;;;;7.28;5.18;;;;;37.70;96619.00;;;;8285436;28;20233;-64
2023/06/25 12:31:51;;;;;;;6.45;5.75;;;;;37.20;96614.00;;;;8290664;28;20696;-63
2023/06/25 12:35:56;;;;;;;6.43;4.72;;;;;37.20;96607.00;;;;8291963;28;20240;-63
2023/06/25 12:39:59;;;;;;;7.45;4.72;;;;;37.00;96606.00;;;;8292203;28;20202;-63
2023/06/25 12:44:03;;;;;;;5.80;5.30;;;;;37.40;96605.00;;;;8300195;28;20202;-63
2023/06/25 12:48:06;;;;;;;5.53;5.03;;;;;37.00;96596.00;;;;8290008;28;20288;-62
2023/06/25 12:52:11;;;;;;;5.80;5.22;;;;;36.60;96594.00;;;;8285924;28;20279;-63
2023/06/25 12:56:16;;;;;;;4.97;4.50;;;;;36.50;96591.00;;;;8291378;28;20620;-61
2023/06/25 13:00:21;;;;;;;5.57;4.65;;;;;36.30;96592.00;;;;8292782;28;20563;-63
2023/06/25 13:04:44;;;;;;;5.63;4.75;;;;;35.40;96591.00;;;;8294986;28;20319;-63
2023/06/25 13:08:51;;;;;;;5.05;4.65;;;;;35.10;96583.00;;;;8284422;28;20965;-61
2023/06/25 13:12:54;;;;;;;5.22;4.72;;;;;35.50;96583.00;;;;8289495;28;20731;-62
2023/06/25 13:16:58;;;;;;;6.95;4.55;;;;;36.70;96572.00;;;;8290468;28;20206;-64
2023/06/25 13:21:04;;;;;;;4.75;4.35;;;;;37.70;96569.00;;;;8292773;28;20281;-64
2023/06/25 13:25:10;;;;;;;4.63;4.20;;;;;38.40;96568.00;;;;8263675;28;20249;-64
2023/06/25 13:29:14;;;;;;;5.53;4.38;;;;;38.80;96565.00;;;;8287185;28;20790;-62
2023/06/25 13:33:22;;;;;;;4.88;4.47;;;;;39.20;96560.00;;;;8283106;28;20222;-61
2023/06/25 13:37:29;;;;;;;4.97;4.55;;;;;39.70;96563.00;;;;8282238;28;20341;-62
2023/06/25 13:41:33;;;;;;;5.85;4.72;;;;;40.00;96563.00;;;;8284831;28;20507;-65
2023/06/25 13:45:38;;;;;;;5.63;4.28;;;;;40.00;96559.00;;;;8282156;28;20202;-67
2023/06/25 13:49:43;;;;;;;5.20;4.70;;;;;40.10;96559.00;;;;8285391;28;20253;-67
2023/06/25 13:53:50;;;;;;;4.35;4.05;;;;;40.40;96554.00;;;;8282422;28;20362;-65
2023/06/25 13:57:58;;;;;;;4.80;4.43;;;;;40.00;96546.00;;;;8282432;28;20217;-64
2023/06/25 14:02:01;;;;;;;4.70;4.30;;;;;39.50;96552.00;;;;8283121;28;20238;-65
2023/06/25 14:06:08;;;;;;;5.45;4.68;;;;;39.70;96554.00;;;;8285319;28;20208;-66
2023/06/25 14:10:16;;;;;;;4.72;4.18;;;;;40.20;96546.00;;;;8277500;28;20257;-65
2023/06/25 14:14:21;;;;;;;6.90;4.90;;;;;39.70;96539.00;;;;8281957;28;20284;-69
2023/06/25 14:18:24;;;;;;;4.57;4.18;;;;;39.10;96539.00;;;;8285353;28;20220;-65
2023/06/25 14:22:27;;;;;;;4.65;4.25;;;;;39.20;96543.00;;;;8281376;28;20935;-66
2023/06/25 14:26:31;;;;;;;4.80;4.30;;;;;38.50;96534.00;;;;8287449;28;20212;-66
2023/06/25 14:30:35;;;;;;;5.15;4.65;;;;;38.70;96535.00;;;;8276564;28;20242;-66
2023/06/25 14:34:39;;;;;;;5.45;4.10;;;;;39.30;96531.00;;;;8284201;28;20198;-68
2023/06/25 14:38:45;;;;;;;5.45;4.10;;;;;39.90;96525.00;;;;8273493;28;20635;-67
2023/06/25 14:42:51;;;;;;;5.20;4.70;;;;;39.90;96522.00;;;;8279017;28;20671;-66
2023/06/25 14:46:56;;;;;;;5.65;4.63;;;;;39.80;96522.00;;;;8282960;28;20304;-65
2023/06/25 14:51:02;;;;;;;4.95;4.55;;;;;39.90;96517.00;;;;8280019;28;22441;-67
2023/06/25 14:55:05;;;;;;;4.32;3.92;;;;;40.10;96520.00;;;;8286359;28;20205;-67
2023/06/25 14:59:12;;;;;;;5.10;4.20;;;;;40.00;96510.00;;;;8293457;28;20197;-66
2023/06/25 15:03:16;;;;;;;5.63;4.20;;;;;39.40;96510.00;;;;8282883;28;20348;-65
2023/06/25 15:07:24;;;;;;;4.60;4.18;;;;;38.90;96512.00;;;;8276287;28;20245;-68
2023/06/25 15:11:32;;;;;;;4.35;4.05;;;;;38.70;96507.00;;;;8279564;28;20301;-72
2023/06/25 15:15:44;;;;;;;4.65;4.25;;;;;38.40;96508.00;;;;8285016;28;20278;-67
2023/06/25 15:19:49;;;;;;;5.00;4.47;;;;;38.10;96501.00;;;;8282268;28;20386;-69
2023/06/25 15:23:53;;;;;;;4.28;3.88;;;;;38.20;96496.00;;;;8273923;28;20281;-67
2023/06/25 15:27:59;;;;;;;4.57;4.18;;;;;38.10;96489.00;;;;8279525;28;20260;-68
2023/06/25 15:32:03;;;;;;;4.40;3.97;;;;;37.90;96488.00;;;;8278498;28;21264;-66
2023/06/25 15:36:15;;;;;;;6.18;4.30;;;;;38.20;96489.00;;;;8278951;28;20286;-66
2023/06/25 15:40:19;;;;;;;4.93;4.53;;;;;38.30;96478.00;;;;8279074;28;20191;-65
2023/06/25 15:44:28;;;;;;;4.18;3.78;;;;;38.20;96475.00;;;;8279251;28;20203;-63
2023/06/25 15:48:32;;;;;;;4.55;4.10;;;;;38.20;96479.00;;;;8283625;28;20234;-66
2023/06/25 15:52:39;;;;;;;4.45;4.15;;;;;38.20;96468.00;;;;8288265;28;20198;-66
2023/06/25 15:56:42;;;;;;;4.55;4.15;;;;;38.40;96463.00;;;;8285316;28;20209;-65
2023/06/25 16:00:46;;;;;;;4.88;4.00;;;;;38.50;96463.00;;;;8286574;28;20559;-65
2023/06/25 16:04:50;;;;;;;5.72;4.55;;;;;38.30;96460.00;;;;8259179;28;1172834;-64
2023/06/25 16:09:00;;;;;;;4.30;4.00;;;;;38.20;96454.00;;;;8298797;28;20317;-65
2023/06/25 16:13:08;;;;;;;5.32;4.13;;;;;38.40;96459.00;;;;8283312;28;20345;-66
2023/06/25 16:17:14;;;;;;;4.68;4.28;;;;;38.70;96457.00;;;;8287021;28;20377;-64
2023/06/25 16:21:20;;;;;;;4.15;3.85;;;;;38.60;96456.00;;;;8273406;28;20207;-63
2023/06/25 16:25:25;;;;;;;5.85;4.38;;;;;38.80;96449.00;;;;8274101;28;20235;-65
2023/06/25 16:29:29;;;;;;;4.32;4.03;;;;;38.80;96450.00;;;;8266408;28;20249;-65
2023/06/25 16:33:34;;;;;;;5.07;4.30;;;;;38.70;96440.00;;;;8290348;28;20204;-65
2023/06/25 16:37:37;;;;;;;4.50;4.10;;;;;38.90;96446.00;;;;8295851;28;20201;-65
2023/06/25 16:41:42;;;;;;;3.95;3.65;;;;;39.10;96441.00;;;;8282681;28;20206;-65
2023/06/25 16:45:45;;;;;;;6.07;4.65;;;;;39.30;96441.00;;;;8284351;28;20289;-65
2023/06/25 16:49:49;;;;;;;4.40;4.00;;;;;39.30;96440.00;;;;8276544;28;20245;-65
2023/06/25 16:53:59;;;;;;;5.03;4.07;;;;;39.30;96435.00;;;;8282266;28;20190;-66
2023/06/25 16:58:06;;;;;;;4.10;3.80;;;;;39.40;96437.00;;;;8286945;28;20644;-66
2023/06/25 17:02:09;;;;;;;4.78;3.75;;;;;39.70;96440.00;;;;8280891;28;20232;-65
2023/06/25 17:06:13;;;;;;;5.20;4.15;;;;;40.00;96440.00;;;;8265500;28;20202;-66
2023/06/25 17:10:20;;;;;;;6.18;3.78;;;;;40.20;96432.00;;;;8290663;28;20228;-66
2023/06/25 17:14:25;;;;;;;4.32;4.00;;;;;39.90;96436.00;;;;8277373;28;20970;-66
2023/06/25 17:18:36;;;;;;;6.38;5.78;;;;;39.80;96438.00;;;;8277229;28;20207;-65
2023/06/25 17:22:39;;;;;;;6.07;5.45;;;;;39.80;96435.00;;;;8261176;28;20206;-66
2023/06/25 17:26:48;;;;;;;7.30;6.57;;;;;39.80;96436.00;;;;8283538;28;20229;-66
2023/06/25 17:30:56;;;;;;;5.72;4.82;;;;;39.70;96444.00;;;;8275717;28;20292;-65
2023/06/25 17:34:59;;;;;;;11.35;6.45;;;;;39.60;96442.00;;;;8272218;28;20645;-65
2023/06/25 17:39:03;;;;;;;5.53;4.18;;;;;39.60;96444.00;;;;8275803;28;20206;-66
2023/06/25 17:43:06;;;;;;;4.82;4.35;;;;;39.60;96443.00;;;;8273351;28;20199;-66
2023/06/25 17:47:11;;;;;;;4.75;4.35;;;;;39.50;96441.00;;;;8276418;28;20282;-66
2023/06/25 17:51:14;;;;;;;3.92;3.63;;;;;39.30;96439.00;;;;8272521;28;20309;-65
2023/06/25 17:55:19;;;;;;;5.10;3.70;;;;;38.90;96451.00;;;;8289802;28;20288;-65
2023/06/25 17:59:27;;;;;;;3.83;3.53;;;;;38.00;96449.00;;;;8294162;28;20889;-66
2023/06/25 18:03:33;;;;;;;4.82;4.03;;;;;36.90;96441.00;;;;8295208;28;20230;-65
2023/06/25 18:07:39;;;;;;;5.68;4.20;;;;;35.70;96443.00;;;;8283382;28;20563;-65
2023/06/25 18:11:47;;;;;;;4.30;3.90;;;;;34.80;96450.00;;;;8286779;28;20230;-65
2023/06/25 18:15:51;;;;;;;4.53;4.13;;;;;33.90;96441.00;;;;8281606;28;20649;-65
2023/06/25 18:19:55;;;;;;;6.45;4.05;;;;;33.20;96447.00;;;;8278616;28;20639;-65
2023/06/25 18:24:03;;;;;;;6.03;4.07;;;;;32.70;96449.00;;;;8280125;28;20635;-65
2023/06/25 18:28:10;;;;;;;4.68;4.28;;;;;32.10;96444.00;;;;8283551;28;20658;-65
2023/06/25 18:32:16;;;;;;;5.18;4.15;;;;;31.40;96441.00;;;;8276329;28;20679;-65
2023/06/25 18:36:24;;;;;;;4.47;4.10;;;;;30.60;96443.00;;;;8274852;28;20212;-65
2023/06/25 18:40:27;;;;;;;4.65;4.07;;;;;29.60;96449.00;;;;8279702;28;20213;-65
2023/06/25 18:44:30;;;;;;;6.05;4.35;;;;;28.90;96439.00;;;;8273588;28;20747;-65
2023/06/25 18:48:33;;;;;;;5.35;4.15;;;;;28.20;96447.00;;;;8272253;28;20202;-65
2023/06/25 18:52:38;;;;;;;6.95;4.65;;;;;27.50;96442.00;;;;8279297;28;20238;-65
2023/06/25 18:56:42;;;;;;;5.10;4.60;;;;;26.70;96446.00;;;;8276205;28;20236;-65
2023/06/25 19:00:45;;;;;;;5.95;4.82;;;;;26.20;96446.00;;;;8288163;28;20634;-65
2023/06/25 19:04:50;;;;;;;5.20;4.70;;;;;25.80;96440.00;;;;8286581;28;20747;-65
2023/06/25 19:08:57;;;;;;;6.45;4.97;;;;;25.50;96443.00;;;;8290009;28;20238;-64
2023/06/25 19:13:01;;;;;;;7.20;4.72;;;;;25.20;96447.00;;;;8285113;28;20555;-64
2023/06/25 19:17:04;;;;;;;5.60;4.53;;;;;24.90;96443.00;;;;8281531;28;20281;-64
2023/06/25 19:21:10;;;;;;;7.03;5.28;;;;;24.60;96442.00;;;;8269291;28;20226;-64
2023/06/25 19:25:15;;;;;;;6.90;4.65;;;;;24.40;96440.00;;;;8278221;28;20217;-64
2023/06/25 19:29:18;;;;;;;8.32;5.00;;;;;24.10;96441.00;;;;8275743;28;20293;-63
2023/06/25 19:33:21;;;;;;;5.22;4.65;;;;;23.90;96435.00;;;;8276512;28;20813;-63
2023/06/25 19:37:24;;;;;;;6.28;5.10;;;;;23.60;96445.00;;;;8275167;28;20202;-64
2023/06/25 19:41:33;;;;;;;5.25;4.72;;;;;23.30;96451.00;;;;8268642;28;20195;-65
2023/06/25 19:45:37;;;;;;;7.22;5.00;;;;;23.10;96455.00;;;;8272734;28;20201;-65
2023/06/25 19:49:45;;;;;;;7.18;4.93;;;;;22.90;96445.00;;;;8263643;28;20218;-65
2023/06/25 19:53:48;;;;;;;5.63;4.90;;;;;22.60;96447.00;;;;8275432;28;20237;-63
2023/06/25 19:58:10;;;;;;;6.90;4.80;;;;;22.20;96448.00;;;;8287921;28;20249;-65
2023/06/25 20:02:13;;;;;;;6.70;5.20;;;;;22.00;96449.00;;;;8276478;28;20713;-65
2023/06/25 20:06:17;;;;;;;9.07;5.15;;;;;21.80;96454.00;;;;8281723;28;20567;-65
2023/06/25 20:10:20;;;;;;;6.63;5.25;;;;;21.50;96452.00;;;;8280027;28;20236;-65
2023/06/25 20:14:29;;;;;;;8.57;5.32;;;;;21.30;96449.00;;;;8277318;28;20297;-67
2023/06/25 20:18:37;;;;;;;6.70;5.35;;;;;21.20;96453.00;;;;8273691;28;20199;-67
2023/06/25 20:22:41;;;;;;;6.78;5.13;;;;;21.10;96456.00;;;;8277368;28;20237;-66
2023/06/25 20:26:48;;;;;;;7.75;5.38;;;;;21.00;96457.00;;;;8282556;28;20254;-65